Mavisdale, Virginia
Current Conditions -  °F | °C
As of 9:15 PM on Friday 28 Nov 2014 (Local Time) from KJFZ Reporting Station
Clear Clear  
Wind Chill: 31°   Ceiling: Unl
Heat Index: 31°   Visibility: 10mi
Dew Point: 20°   Wind: 3mph
Humidity: 66%   Direction: 170°S
Pressure: 30.17"   Gusts: NA
Location:  37.2°N, 82.01°W
Report Text: KJFZ 290215Z AUTO 17003KT 10SM CLR M01/M06 A3017 RMK AO2 T10081065
Loading
Personal Weather Stations






























Interactive Weather Map New forecast layout! Learn more

10-Day Weather Forecast

Advertisements
Track Severe Weather on mobile